createdAt,value
2022-07-29T00:01:19.374Z,73.90
2022-07-29T00:05:01.954Z,73.80
2022-07-29T00:08:43.709Z,73.30
2022-07-29T00:12:26.095Z,74.30
2022-07-29T00:16:08.678Z,74.80
2022-07-29T00:19:50.538Z,75.40
2022-07-29T00:23:36.482Z,76.10
2022-07-29T00:27:19.064Z,76.80
2022-07-29T00:31:01.907Z,77.20
2022-07-29T00:35:02.351Z,78.30
2022-07-29T00:38:46.214Z,78.80
2022-07-29T00:42:28.514Z,79.50
2022-07-29T00:46:10.556Z,80.50
2022-07-29T00:49:52.382Z,81.30
2022-07-29T00:53:37.103Z,81.30
2022-07-29T00:57:19.127Z,81.70
2022-07-29T01:01:01.030Z,82.50
2022-07-29T01:04:42.870Z,83.40
2022-07-29T01:08:24.756Z,83.60
2022-07-29T01:12:06.917Z,83.10
2022-07-29T01:15:57.919Z,84.40
2022-07-29T01:19:47.870Z,84.20
2022-07-29T01:23:48.029Z,84.80
2022-07-29T01:27:39.842Z,83.60
2022-07-29T01:31:43.744Z,85.80
2022-07-29T01:35:40.913Z,84.80
2022-07-29T01:39:27.229Z,86.90
2022-07-29T01:43:14.155Z,86.50
2022-07-29T01:46:58.693Z,87.20
2022-07-29T01:50:54.223Z,87.30
2022-07-29T01:54:43.867Z,85.80
2022-07-29T01:58:29.354Z,86.70
2022-07-29T02:02:11.411Z,87.10
2022-07-29T02:05:53.275Z,87.10
2022-07-29T02:09:36.790Z,87.10
2022-07-29T02:13:18.584Z,87.40
2022-07-29T02:17:00.439Z,87.10
2022-07-29T02:20:43.909Z,87.60
2022-07-29T02:24:26.051Z,88.70
2022-07-29T02:28:08.097Z,89.40
2022-07-29T02:31:50.525Z,88.10
2022-07-29T02:35:34.837Z,87.90
2022-07-29T02:39:16.883Z,87.90
2022-07-29T02:42:58.668Z,87.70
2022-07-29T02:47:03.576Z,87.50
2022-07-29T02:50:49.331Z,87.40
2022-07-29T02:54:55.249Z,87.10
2022-07-29T02:58:47.982Z,85.20
2022-07-29T03:02:29.788Z,87.10
2022-07-29T03:06:28.150Z,86.70
2022-07-29T03:10:17.203Z,86.80
2022-07-29T03:13:59.014Z,86.40
2022-07-29T03:17:40.906Z,86.90
2022-07-29T03:21:22.691Z,86.80
2022-07-29T03:25:14.665Z,87.20
2022-07-29T03:28:56.758Z,86.70
2022-07-29T03:32:38.891Z,87.50
2022-07-29T03:36:21.894Z,88.10
2022-07-29T03:40:06.229Z,88.20
2022-07-29T03:43:49.467Z,88.10
2022-07-29T03:47:49.940Z,88.00
2022-07-29T03:51:34.375Z,87.90
2022-07-29T03:55:16.318Z,87.90
2022-07-29T03:58:58.187Z,88.40
2022-07-29T04:02:40.321Z,88.80
2022-07-29T04:06:22.221Z,88.70
2022-07-29T04:10:04.206Z,89.40
2022-07-29T04:13:45.965Z,88.90
2022-07-29T04:17:27.780Z,89.80
2022-07-29T04:21:09.625Z,89.70
2022-07-29T04:24:51.496Z,89.90
2022-07-29T04:28:33.316Z,89.70
2022-07-29T04:32:15.103Z,90.00
2022-07-29T04:35:56.914Z,90.00
2022-07-29T04:39:38.708Z,90.00
2022-07-29T04:43:23.153Z,89.90
2022-07-29T04:47:05.674Z,90.10
2022-07-29T04:50:47.463Z,90.00
2022-07-29T04:54:29.272Z,90.20
2022-07-29T04:58:11.141Z,90.20
2022-07-29T05:01:53.058Z,90.40
2022-07-29T05:05:34.976Z,90.30
2022-07-29T05:09:16.801Z,90.30
2022-07-29T05:12:58.573Z,90.60
2022-07-29T05:16:41.209Z,90.70
2022-07-29T05:20:27.343Z,90.50
2022-07-29T05:24:09.211Z,90.50
2022-07-29T05:27:51.112Z,90.50
2022-07-29T05:31:34.431Z,90.60
2022-07-29T05:35:16.586Z,90.40
2022-07-29T05:38:58.644Z,90.30
2022-07-29T05:42:40.399Z,90.10
2022-07-29T05:46:22.314Z,89.90
2022-07-29T05:50:05.310Z,89.50
2022-07-29T05:53:47.091Z,89.50
2022-07-29T05:57:28.874Z,89.10
2022-07-29T06:01:10.676Z,89.10
2022-07-29T06:04:52.595Z,89.30
2022-07-29T06:08:34.925Z,89.10
2022-07-29T06:12:16.810Z,88.80
2022-07-29T06:16:07.978Z,88.00
2022-07-29T06:19:49.961Z,87.00
2022-07-29T06:23:31.767Z,87.00
2022-07-29T06:27:13.517Z,86.90
2022-07-29T06:30:55.384Z,86.20
2022-07-29T06:34:37.342Z,85.80
2022-07-29T06:38:31.095Z,85.20
2022-07-29T06:42:15.674Z,84.40
2022-07-29T06:45:57.626Z,83.30
2022-07-29T06:49:39.694Z,83.00
2022-07-29T06:53:21.558Z,83.00
2022-07-29T06:57:03.420Z,82.60
2022-07-29T07:00:46.052Z,82.60
2022-07-29T07:04:27.816Z,83.00
2022-07-29T07:08:09.643Z,82.50
2022-07-29T07:11:51.435Z,82.60
2022-07-29T07:15:38.974Z,82.40
2022-07-29T07:19:21.761Z,81.50
2022-07-29T07:23:03.611Z,80.90
2022-07-29T07:26:45.429Z,80.10
2022-07-29T07:30:28.177Z,79.90
2022-07-29T07:34:10.304Z,79.80
2022-07-29T07:37:52.116Z,79.10
2022-07-29T07:41:33.898Z,77.10
2022-07-29T07:45:16.600Z,74.40
2022-07-29T07:48:58.645Z,70.90
2022-07-29T07:52:54.091Z,67.20
2022-07-29T07:56:35.840Z,65.80
2022-07-29T08:00:17.920Z,60.90
2022-07-29T08:03:59.722Z,58.30
2022-07-29T08:07:42.586Z,55.80
2022-07-29T08:11:24.488Z,53.00
2022-07-29T08:15:08.621Z,50.60
2022-07-29T08:18:50.486Z,48.90
2022-07-29T08:22:32.421Z,48.30
2022-07-29T08:26:14.459Z,45.30
2022-07-29T08:29:56.915Z,45.30
2022-07-29T08:33:38.723Z,43.50
2022-07-29T08:37:20.482Z,42.10
2022-07-29T08:41:03.659Z,41.50
2022-07-29T08:44:45.492Z,41.30
2022-07-29T08:48:27.254Z,40.50
2022-07-29T08:52:11.220Z,39.10
2022-07-29T08:55:53.016Z,38.50
2022-07-29T08:59:34.826Z,36.60
2022-07-29T09:03:19.860Z,35.60
2022-07-29T09:07:02.197Z,35.50
2022-07-29T09:10:44.509Z,34.90
2022-07-29T09:14:26.333Z,35.00
2022-07-29T09:18:08.171Z,34.00
2022-07-29T09:22:04.056Z,32.20
2022-07-29T09:25:45.992Z,32.50
2022-07-29T09:29:31.169Z,31.10
2022-07-29T09:33:16.222Z,30.00
2022-07-29T09:36:58.548Z,29.70
2022-07-29T09:40:41.077Z,29.30
2022-07-29T09:44:23.337Z,29.20
2022-07-29T09:48:15.678Z,28.80
2022-07-29T09:52:04.881Z,29.40
2022-07-29T09:55:51.592Z,27.30
2022-07-29T09:59:34.049Z,26.20
2022-07-29T10:03:16.700Z,25.90
2022-07-29T10:07:05.070Z,25.60
2022-07-29T10:10:47.141Z,25.60
2022-07-29T10:14:28.971Z,25.20
2022-07-29T10:18:14.439Z,25.10
2022-07-29T10:21:58.219Z,25.10
2022-07-29T10:25:45.505Z,24.30
2022-07-29T10:29:28.160Z,24.60
2022-07-29T10:33:28.029Z,23.30
2022-07-29T10:37:35.367Z,23.20
2022-07-29T10:41:32.453Z,25.30
2022-07-29T10:45:25.563Z,22.90
2022-07-29T10:49:24.852Z,22.70
2022-07-29T10:53:07.039Z,23.70
2022-07-29T10:56:50.812Z,22.80
2022-07-29T11:00:35.723Z,22.40
2022-07-29T11:04:42.005Z,22.10
2022-07-29T11:08:26.018Z,23.20
2022-07-29T11:12:37.021Z,22.30
2022-07-29T11:16:21.325Z,24.80
2022-07-29T11:20:32.028Z,21.60
2022-07-29T11:24:29.189Z,22.10
2022-07-29T11:28:23.036Z,21.30
2022-07-29T11:32:22.674Z,22.30
2022-07-29T11:36:16.708Z,21.50
2022-07-29T11:40:02.227Z,21.50
2022-07-29T11:43:50.783Z,21.40
2022-07-29T11:47:39.500Z,21.50
2022-07-29T11:51:21.515Z,20.40
2022-07-29T11:55:23.507Z,20.20
2022-07-29T11:59:15.266Z,20.90
2022-07-29T12:02:57.990Z,20.30
2022-07-29T12:06:48.721Z,19.90
2022-07-29T12:10:33.820Z,20.10
2022-07-29T12:14:28.697Z,20.30
2022-07-29T12:18:11.888Z,23.00
2022-07-29T12:21:56.642Z,20.10
2022-07-29T12:25:42.998Z,20.00
2022-07-29T12:29:35.567Z,20.00
2022-07-29T12:33:20.555Z,19.80
2022-07-29T12:37:02.361Z,19.40
2022-07-29T12:40:44.719Z,22.50
2022-07-29T12:44:30.105Z,19.10
2022-07-29T12:48:12.019Z,19.10
2022-07-29T12:51:54.661Z,19.30
2022-07-29T12:55:52.265Z,19.10
2022-07-29T12:59:34.079Z,19.00
2022-07-29T13:03:20.254Z,18.60
2022-07-29T13:07:04.550Z,18.90
2022-07-29T13:10:47.023Z,19.30
2022-07-29T13:14:35.338Z,19.10
2022-07-29T13:18:30.987Z,19.30
2022-07-29T13:22:20.623Z,19.70
2022-07-29T13:26:17.169Z,19.50
2022-07-29T13:30:00.458Z,20.10
2022-07-29T13:33:42.325Z,19.50
2022-07-29T13:37:24.116Z,19.40
2022-07-29T13:41:05.958Z,18.90
2022-07-29T13:44:49.639Z,18.90
2022-07-29T13:48:31.530Z,18.80
2022-07-29T13:52:13.354Z,18.90
2022-07-29T13:55:55.971Z,18.80
2022-07-29T13:59:37.771Z,19.10
2022-07-29T14:03:19.548Z,19.40
2022-07-29T14:07:03.685Z,19.20
2022-07-29T14:10:46.081Z,18.80
2022-07-29T14:14:27.937Z,18.90
2022-07-29T14:18:09.774Z,18.80
2022-07-29T14:21:51.577Z,19.20
2022-07-29T14:25:33.475Z,19.50
2022-07-29T14:29:15.395Z,19.30
2022-07-29T14:32:57.226Z,19.20
2022-07-29T14:36:39.199Z,19.50
2022-07-29T14:40:21.027Z,19.90
2022-07-29T14:44:02.928Z,20.30
2022-07-29T14:47:44.677Z,20.30
2022-07-29T14:51:32.484Z,20.50
2022-07-29T14:55:16.593Z,20.80
2022-07-29T14:59:01.977Z,20.90
2022-07-29T15:03:00.903Z,21.30
2022-07-29T15:06:44.081Z,21.80
2022-07-29T15:10:27.971Z,22.40
2022-07-29T15:14:09.913Z,23.20
2022-07-29T15:17:51.707Z,23.20
2022-07-29T15:21:33.564Z,22.10
2022-07-29T15:25:15.366Z,20.90
2022-07-29T15:28:57.135Z,21.00
2022-07-29T15:32:38.920Z,20.80
2022-07-29T15:36:50.141Z,21.20
2022-07-29T15:40:22.711Z,21.30
2022-07-29T15:44:04.708Z,21.20
2022-07-29T15:47:46.536Z,21.60
2022-07-29T15:51:28.405Z,22.60
2022-07-29T15:55:10.326Z,24.00
2022-07-29T15:58:52.138Z,25.10
2022-07-29T16:02:34.042Z,26.10
2022-07-29T16:06:16.627Z,26.40
2022-07-29T16:09:58.439Z,26.80
2022-07-29T16:13:40.466Z,27.60
2022-07-29T16:17:22.369Z,28.80
2022-07-29T16:21:04.165Z,29.80
2022-07-29T16:24:45.991Z,31.70
2022-07-29T16:28:28.717Z,32.80
2022-07-29T16:32:10.648Z,32.40
2022-07-29T16:35:52.589Z,33.80
2022-07-29T16:39:34.394Z,34.40
2022-07-29T16:43:16.254Z,34.90
2022-07-29T16:46:59.698Z,34.80
2022-07-29T16:50:43.317Z,35.30
2022-07-29T16:54:25.541Z,35.00
2022-07-29T16:58:07.400Z,35.10
2022-07-29T17:01:49.315Z,35.30
2022-07-29T17:05:52.373Z,35.20
2022-07-29T17:09:33.134Z,35.60
2022-07-29T17:13:15.023Z,36.30
2022-07-29T17:17:01.370Z,36.00
2022-07-29T17:20:43.618Z,36.00
2022-07-29T17:24:25.409Z,36.60
2022-07-29T17:28:07.236Z,36.20
2022-07-29T17:31:49.058Z,37.10
2022-07-29T17:35:49.297Z,37.00
2022-07-29T17:39:31.071Z,38.60
2022-07-29T17:43:12.869Z,38.30
2022-07-29T17:46:54.939Z,37.70
2022-07-29T17:50:36.861Z,37.20
2022-07-29T17:54:18.716Z,37.00
2022-07-29T17:58:00.497Z,37.40
2022-07-29T18:01:42.384Z,38.50
2022-07-29T18:05:24.217Z,38.40
2022-07-29T18:09:06.084Z,38.40
2022-07-29T18:12:48.009Z,38.50
2022-07-29T18:16:29.861Z,38.90
2022-07-29T18:20:11.892Z,39.30
2022-07-29T18:23:53.667Z,40.50
2022-07-29T18:27:35.437Z,40.60
2022-07-29T18:31:17.300Z,40.90
2022-07-29T18:35:02.716Z,40.70
2022-07-29T18:38:44.673Z,41.60
2022-07-29T18:42:26.435Z,42.00
2022-07-29T18:46:08.335Z,42.20
2022-07-29T18:49:50.190Z,42.70
2022-07-29T18:53:32.196Z,42.30
2022-07-29T18:57:55.077Z,42.70
2022-07-29T19:01:20.666Z,42.80
2022-07-29T19:05:02.499Z,42.80
2022-07-29T19:08:44.369Z,43.10
2022-07-29T19:12:26.609Z,43.30
2022-07-29T19:16:11.916Z,43.50
2022-07-29T19:19:53.931Z,43.30
2022-07-29T19:24:01.489Z,43.30
2022-07-29T19:27:37.692Z,44.00
2022-07-29T19:31:19.561Z,44.40
2022-07-29T19:35:19.790Z,44.90
2022-07-29T19:39:01.761Z,45.70
2022-07-29T19:42:43.914Z,47.10
2022-07-29T19:46:28.733Z,47.80
2022-07-29T19:50:10.679Z,49.10
2022-07-29T19:53:52.562Z,50.30
2022-07-29T19:57:40.761Z,50.30
2022-07-29T20:01:24.676Z,50.90
2022-07-29T20:05:07.222Z,51.60
2022-07-29T20:08:49.512Z,52.30
2022-07-29T20:12:31.320Z,52.80
2022-07-29T20:16:13.248Z,53.80
2022-07-29T20:19:56.341Z,54.50
2022-07-29T20:23:38.186Z,55.10
2022-07-29T20:27:20.022Z,55.80
2022-07-29T20:31:01.901Z,56.40
2022-07-29T20:34:43.735Z,56.80
2022-07-29T20:38:25.522Z,57.70
2022-07-29T20:42:07.494Z,58.60
2022-07-29T20:45:49.410Z,59.10
2022-07-29T20:49:31.276Z,60.00
2022-07-29T20:53:13.582Z,60.60
2022-07-29T20:56:55.374Z,61.70
2022-07-29T21:00:37.466Z,62.60
2022-07-29T21:04:19.354Z,64.00
2022-07-29T21:08:01.194Z,65.20
2022-07-29T21:11:44.443Z,65.90
2022-07-29T21:15:28.511Z,66.60
2022-07-29T21:19:10.320Z,66.80
2022-07-29T21:22:55.446Z,67.00
2022-07-29T21:26:37.267Z,67.90
2022-07-29T21:30:19.258Z,68.00
2022-07-29T21:34:01.091Z,68.20
2022-07-29T21:37:42.893Z,68.20
2022-07-29T21:41:24.774Z,68.30
2022-07-29T21:45:06.972Z,68.50
2022-07-29T21:48:48.832Z,68.90
2022-07-29T21:52:30.678Z,69.20
2022-07-29T21:56:14.563Z,69.50
2022-07-29T22:00:02.155Z,69.80
2022-07-29T22:03:44.643Z,69.90
2022-07-29T22:07:54.514Z,70.70
2022-07-29T22:11:28.323Z,72.90
2022-07-29T22:15:10.560Z,74.70
2022-07-29T22:18:52.870Z,75.20
2022-07-29T22:22:35.591Z,75.60
2022-07-29T22:26:17.488Z,76.50
2022-07-29T22:29:59.611Z,77.90
2022-07-29T22:33:41.990Z,78.60
2022-07-29T22:37:24.373Z,79.10
2022-07-29T22:41:06.345Z,79.40
2022-07-29T22:44:48.140Z,79.30
2022-07-29T22:48:29.997Z,79.50
2022-07-29T22:52:11.846Z,79.10
2022-07-29T22:55:56.509Z,79.40
2022-07-29T22:59:38.380Z,80.30
2022-07-29T23:03:21.047Z,80.00
2022-07-29T23:07:03.091Z,80.40
2022-07-29T23:10:45.276Z,81.00
2022-07-29T23:14:27.049Z,81.10
2022-07-29T23:18:09.036Z,81.20
2022-07-29T23:21:50.825Z,82.40
2022-07-29T23:25:32.663Z,82.30
2022-07-29T23:29:14.501Z,82.60
2022-07-29T23:32:56.346Z,83.10
2022-07-29T23:36:38.174Z,83.00
2022-07-29T23:40:19.986Z,83.00
2022-07-29T23:44:01.754Z,83.90
2022-07-29T23:47:43.670Z,83.70
2022-07-29T23:51:25.989Z,84.10
2022-07-29T23:55:37.546Z,86.30
2022-07-29T23:59:10.733Z,86.00
